Time;durP1;ratioP1;P1;durP2;ratioP2;P2;SDS_P1;SDS_P2;PMS_P1;PMS_P2;Temp;Humidity;BMP_temperature;BMP_pressure;BME280_temperature;BME280_humidity;BME280_pressure;Samples;Min_cycle;Max_cycle;Signal;HPM_P1;HPM_P2
2022/09/12 00:01:18;;;;;;;;;9.00;9.00;;;;;;;;6246412;22;45302;-95
2022/09/12 00:03:44;;;;;;;;;8.67;8.67;;;;;;;;6247102;22;45190;-94
2022/09/12 00:06:09;;;;;;;;;9.00;9.00;;;;;;;;6246820;22;47729;-96
2022/09/12 00:08:34;;;;;;;;;12.00;10.33;;;;;;;;6246228;22;45996;-95
2022/09/12 00:11:04;;;;;;;;;9.00;8.00;;;;;;;;6245757;22;45303;-95
2022/09/12 00:13:29;;;;;;;;;15.67;11.33;;;;;;;;6245309;22;45326;-94
2022/09/12 00:15:54;;;;;;;;;11.00;8.33;;;;;;;;6244835;22;48259;-95
2022/09/12 00:18:19;;;;;;;;;9.67;8.33;;;;;;;;6244194;22;45360;-95
2022/09/12 00:20:45;;;;;;;;;10.33;10.33;;;;;;;;6245276;22;45264;-95
2022/09/12 00:23:11;;;;;;;;;12.00;10.33;;;;;;;;6242857;22;45327;-94
2022/09/12 00:25:46;;;;;;;;;12.67;11.00;;;;;;;;6241694;22;47418;-94
2022/09/12 00:28:15;;;;;;;;;8.33;8.33;;;;;;;;6240878;22;45330;-94
2022/09/12 00:30:41;;;;;;;;;15.67;10.67;;;;;;;;6237434;22;45557;-95
2022/09/12 00:33:07;;;;;;;;;8.67;8.67;;;;;;;;6237393;22;45737;-95
2022/09/12 00:35:32;;;;;;;;;12.33;12.00;;;;;;;;6236546;22;47064;-95
2022/09/12 00:37:57;;;;;;;;;11.33;9.33;;;;;;;;6236041;22;45470;-94
2022/09/12 00:40:23;;;;;;;;;13.00;10.00;;;;;;;;6237625;22;45535;-95
2022/09/12 00:42:48;;;;;;;;;15.67;13.00;;;;;;;;6236903;22;45436;-94
2022/09/12 00:45:24;;;;;;;;;11.00;11.00;;;;;;;;6236607;22;47552;-95
2022/09/12 00:47:50;;;;;;;;;10.33;10.33;;;;;;;;6236727;22;45400;-95
2022/09/12 00:50:16;;;;;;;;;11.00;10.00;;;;;;;;6238367;22;45407;-95
2022/09/12 00:52:44;;;;;;;;;13.33;13.33;;;;;;;;6237817;22;45454;-96
2022/09/12 00:55:14;;;;;;;;;12.67;11.67;;;;;;;;6236282;22;47594;-94
2022/09/12 00:57:42;;;;;;;;;13.00;13.00;;;;;;;;6237046;22;46055;-95
2022/09/12 01:00:18;;;;;;;;;11.00;10.00;;;;;;;;6237367;22;45317;-95
2022/09/12 01:02:45;;;;;;;;;6.67;6.67;;;;;;;;6238109;22;45191;-95
2022/09/12 01:05:11;;;;;;;;;12.67;11.33;;;;;;;;6236412;22;47112;-95
2022/09/12 01:07:37;;;;;;;;;11.33;11.33;;;;;;;;6237111;22;45400;-95
2022/09/12 01:10:03;;;;;;;;;11.67;10.67;;;;;;;;6237114;22;45741;-94
2022/09/12 01:12:30;;;;;;;;;12.33;10.67;;;;;;;;6237065;22;45301;-95
2022/09/12 01:14:55;;;;;;;;;9.00;9.00;;;;;;;;6237160;22;48035;-96
2022/09/12 01:17:21;;;;;;;;;13.33;12.00;;;;;;;;6236270;22;45464;-95
2022/09/12 01:19:46;;;;;;;;;10.67;10.00;;;;;;;;6237208;22;45388;-95
2022/09/12 01:22:29;;;;;;;;;13.00;11.33;;;;;;;;6237262;22;45251;-94
2022/09/12 01:25:16;;;;;;;;;11.33;11.33;;;;;;;;6236987;22;47164;-95
2022/09/12 01:27:41;;;;;;;;;15.00;11.67;;;;;;;;6238105;22;45827;-95
2022/09/12 01:30:19;;;;;;;;;11.67;10.00;;;;;;;;6238371;22;45255;-95
2022/09/12 01:32:57;;;;;;;;;12.67;10.00;;;;;;;;6238549;22;45211;-95
2022/09/12 01:35:25;;;;;;;;;13.33;11.67;;;;;;;;6236642;22;48131;-95
2022/09/12 01:37:59;;;;;;;;;11.00;9.33;;;;;;;;6238414;22;45424;-93
2022/09/12 01:40:25;;;;;;;;;13.00;10.00;;;;;;;;6240899;22;45436;-96
2022/09/12 01:42:51;;;;;;;;;12.67;11.00;;;;;;;;6246813;22;45388;-96
2022/09/12 01:45:32;;;;;;;;;11.33;11.33;;;;;;;;6246873;22;47433;-95
2022/09/12 01:48:03;;;;;;;;;12.67;10.67;;;;;;;;6246962;22;45318;-94
2022/09/12 01:50:34;;;;;;;;;11.33;11.33;;;;;;;;6247157;22;45197;-95
2022/09/12 01:53:08;;;;;;;;;12.67;11.00;;;;;;;;6247706;22;45168;-94
2022/09/12 01:55:36;;;;;;;;;10.67;8.33;;;;;;;;6247162;22;48217;-94
2022/09/12 01:58:01;;;;;;;;;13.00;11.33;;;;;;;;6246023;22;45315;-95
2022/09/12 02:00:26;;;;;;;;;14.33;12.33;;;;;;;;6246056;22;45334;-95
2022/09/12 02:02:58;;;;;;;;;13.33;11.33;;;;;;;;6242453;22;45295;-95
2022/09/12 02:05:26;;;;;;;;;10.00;10.00;;;;;;;;6236156;22;48006;-95
2022/09/12 02:08:00;;;;;;;;;11.67;11.67;;;;;;;;6236808;22;45309;-95
2022/09/12 02:10:30;;;;;;;;;13.67;11.67;;;;;;;;6237074;22;45373;-95
2022/09/12 02:13:18;;;;;;;;;11.00;11.00;;;;;;;;6236907;22;45521;-94
2022/09/12 02:15:46;;;;;;;;;13.00;13.00;;;;;;;;6236557;22;47153;-95
2022/09/12 02:18:13;;;;;;;;;11.00;9.00;;;;;;;;6235921;22;45294;-95
2022/09/12 02:20:40;;;;;;;;;11.67;10.00;;;;;;;;6236682;22;45462;-94
2022/09/12 02:23:09;;;;;;;;;14.00;12.33;;;;;;;;6237061;22;45455;-94
2022/09/12 02:25:38;;;;;;;;;12.00;11.33;;;;;;;;6236038;22;47967;-94
2022/09/12 02:28:07;;;;;;;;;12.00;12.00;;;;;;;;6236374;22;45267;-95
2022/09/12 02:30:43;;;;;;;;;13.33;12.00;;;;;;;;6236591;22;45488;-95
2022/09/12 02:33:34;;;;;;;;;13.00;13.00;;;;;;;;6236295;22;45401;-96
2022/09/12 02:36:12;;;;;;;;;11.00;10.67;;;;;;;;6205105;22;48322;-96
2022/09/12 02:38:43;;;;;;;;;16.67;15.33;;;;;;;;6236887;22;45662;-94
2022/09/12 02:41:09;;;;;;;;;14.67;13.67;;;;;;;;6256668;22;44800;-95
2022/09/12 02:43:36;;;;;;;;;14.00;13.00;;;;;;;;6240364;22;45335;-95
2022/09/12 02:46:02;;;;;;;;;16.00;15.67;;;;;;;;6236845;22;47696;-95
2022/09/12 02:48:30;;;;;;;;;18.33;16.00;;;;;;;;6235755;22;45358;-95
2022/09/12 02:50:56;;;;;;;;;16.00;14.00;;;;;;;;6237268;22;45428;-95
2022/09/12 02:53:21;;;;;;;;;14.33;14.33;;;;;;;;6236749;22;45481;-95
2022/09/12 02:55:47;;;;;;;;;15.33;13.67;;;;;;;;6236466;22;47107;-95
2022/09/12 02:58:15;;;;;;;;;18.00;15.67;;;;;;;;6236505;22;45493;-95
2022/09/12 03:00:49;;;;;;;;;13.00;12.00;;;;;;;;6236525;22;45415;-94
2022/09/12 03:03:33;;;;;;;;;15.33;14.00;;;;;;;;6236681;22;45299;-95
2022/09/12 03:06:00;;;;;;;;;12.67;9.33;;;;;;;;6236312;22;47240;-95
2022/09/12 03:08:25;;;;;;;;;10.33;10.33;;;;;;;;6236490;22;45238;-94
2022/09/12 03:10:54;;;;;;;;;21.33;14.00;;;;;;;;6236689;22;45220;-95
2022/09/12 03:13:28;;;;;;;;;15.00;15.00;;;;;;;;6236841;22;45356;-95
2022/09/12 03:16:17;;;;;;;;;14.33;13.67;;;;;;;;6262067;22;48348;-93
2022/09/12 03:18:52;;;;;;;;;16.67;13.33;;;;;;;;6219817;22;44714;-92
2022/09/12 03:21:32;;;;;;;;;11.33;11.00;;;;;;;;6260190;22;44583;-91
2022/09/12 03:24:16;;;;;;;;;14.00;14.00;;;;;;;;6263936;22;44757;-92
2022/09/12 03:26:58;;;;;;;;;14.33;12.33;;;;;;;;6260522;22;46298;-93
2022/09/12 03:29:24;;;;;;;;;16.00;15.00;;;;;;;;6259712;22;45267;-91
2022/09/12 03:31:55;;;;;;;;;15.33;12.33;;;;;;;;6237446;22;44547;-93
2022/09/12 03:34:22;;;;;;;;;16.67;11.33;;;;;;;;6262779;22;44770;-93
2022/09/12 03:36:47;;;;;;;;;15.33;11.33;;;;;;;;6263727;22;46697;-91
2022/09/12 03:39:14;;;;;;;;;14.00;12.00;;;;;;;;6259815;22;45180;-92
2022/09/12 03:41:42;;;;;;;;;18.33;14.67;;;;;;;;6235479;22;45207;-92
2022/09/12 03:44:09;;;;;;;;;13.00;13.00;;;;;;;;6263265;22;45314;-92
2022/09/12 03:46:36;;;;;;;;;11.67;10.33;;;;;;;;6265612;22;46965;-94
2022/09/12 03:49:03;;;;;;;;;14.33;13.00;;;;;;;;6266111;22;44679;-94
2022/09/12 03:51:32;;;;;;;;;16.33;13.33;;;;;;;;6241011;22;44637;-92
2022/09/12 03:54:10;;;;;;;;;;;;;;;;;;;;;
2022/09/12 03:56:36;;;;;;;;;18.67;12.00;;;;;;;;6230327;22;74312;-95
2022/09/12 03:59:04;;;;;;;;;13.67;13.33;;;;;;;;6249898;22;45254;-95
2022/09/12 04:01:29;;;;;;;;;13.67;13.67;;;;;;;;6238486;22;45513;-96
2022/09/12 04:03:54;;;;;;;;;12.67;11.67;;;;;;;;6238456;22;45812;-95
2022/09/12 04:06:20;;;;;;;;;16.33;12.67;;;;;;;;6237779;22;47171;-94
2022/09/12 04:08:50;;;;;;;;;14.67;12.33;;;;;;;;6238295;22;45803;-95
2022/09/12 04:11:16;;;;;;;;;14.00;12.67;;;;;;;;6238519;22;45404;-94
2022/09/12 04:13:42;;;;;;;;;14.00;12.00;;;;;;;;6238567;22;45303;-96
2022/09/12 04:16:08;;;;;;;;;13.00;9.67;;;;;;;;6237498;22;48072;-94
2022/09/12 04:18:33;;;;;;;;;14.33;13.00;;;;;;;;6237460;22;45322;-95
2022/09/12 04:21:02;;;;;;;;;12.33;10.00;;;;;;;;6238380;22;45270;-95
2022/09/12 04:23:28;;;;;;;;;12.33;12.33;;;;;;;;6237918;22;45417;-95
2022/09/12 04:25:57;;;;;;;;;14.00;12.67;;;;;;;;6236546;22;48034;-95
2022/09/12 04:28:23;;;;;;;;;12.67;12.67;;;;;;;;6211814;22;45301;-94
2022/09/12 04:30:48;;;;;;;;;12.00;11.00;;;;;;;;6237333;22;45317;-94
2022/09/12 04:33:14;;;;;;;;;16.00;14.00;;;;;;;;6237648;22;45414;-94
2022/09/12 04:35:40;;;;;;;;;16.00;11.67;;;;;;;;6237266;22;47165;-95
2022/09/12 04:38:05;;;;;;;;;12.00;11.00;;;;;;;;6237188;22;45872;-95
2022/09/12 04:40:32;;;;;;;;;13.00;13.00;;;;;;;;6236952;22;45285;-94
2022/09/12 04:42:57;;;;;;;;;11.00;10.67;;;;;;;;6236880;22;45397;-95
2022/09/12 04:45:22;;;;;;;;;12.33;11.67;;;;;;;;6236788;22;47944;-95
2022/09/12 04:47:48;;;;;;;;;14.67;12.33;;;;;;;;6237935;22;45429;-95
2022/09/12 04:50:13;;;;;;;;;13.67;12.67;;;;;;;;6236988;22;45306;-94
2022/09/12 04:52:39;;;;;;;;;8.00;8.00;;;;;;;;6237361;22;45346;-94
2022/09/12 04:55:04;;;;;;;;;16.00;12.00;;;;;;;;6237039;22;48163;-95
2022/09/12 04:57:30;;;;;;;;;12.33;12.00;;;;;;;;6235872;22;45365;-95
2022/09/12 04:59:55;;;;;;;;;12.00;10.00;;;;;;;;6239993;22;45499;-92
2022/09/12 05:02:20;;;;;;;;;14.33;13.00;;;;;;;;6249836;22;45448;-92
2022/09/12 05:04:48;;;;;;;;;14.33;12.67;;;;;;;;6247938;22;47211;-92
2022/09/12 05:07:13;;;;;;;;;18.00;15.67;;;;;;;;6241226;22;45255;-92
2022/09/12 05:09:38;;;;;;;;;20.00;17.00;;;;;;;;6240626;22;45234;-94
2022/09/12 05:12:04;;;;;;;;;18.00;15.33;;;;;;;;6245213;22;45495;-95
2022/09/12 05:14:31;;;;;;;;;18.33;15.67;;;;;;;;6244034;22;48021;-93
2022/09/12 05:16:59;;;;;;;;;17.67;15.33;;;;;;;;6245696;22;45454;-93
2022/09/12 05:19:24;;;;;;;;;17.33;14.33;;;;;;;;6245706;22;45329;-93
2022/09/12 05:21:50;;;;;;;;;13.67;12.67;;;;;;;;6245960;22;45388;-94
2022/09/12 05:24:15;;;;;;;;;12.00;10.67;;;;;;;;6246491;22;47130;-94
2022/09/12 05:26:40;;;;;;;;;13.67;12.00;;;;;;;;6245675;22;45502;-94
2022/09/12 05:29:05;;;;;;;;;17.33;12.33;;;;;;;;6246584;22;45317;-93
2022/09/12 05:31:31;;;;;;;;;15.00;13.67;;;;;;;;6244056;22;45706;-94
2022/09/12 05:33:56;;;;;;;;;14.00;12.00;;;;;;;;6236136;22;47603;-94
2022/09/12 05:36:26;;;;;;;;;14.67;12.00;;;;;;;;6237853;22;45544;-95
2022/09/12 05:38:51;;;;;;;;;13.00;11.67;;;;;;;;6237617;22;45562;-93
2022/09/12 05:41:18;;;;;;;;;12.67;12.67;;;;;;;;6236887;22;45538;-94
2022/09/12 05:46:28;;;;;;;;;12.33;11.33;;;;;;;;6231203;22;45523;-92
2022/09/12 05:48:54;;;;;;;;;13.67;11.67;;;;;;;;6242486;22;45385;-93
2022/09/12 05:51:21;;;;;;;;;12.00;12.00;;;;;;;;6242022;22;45462;-94
2022/09/12 05:53:48;;;;;;;;;15.33;12.33;;;;;;;;6242152;22;47953;-94
2022/09/12 05:56:15;;;;;;;;;15.00;13.00;;;;;;;;6240659;22;45299;-93
2022/09/12 05:58:42;;;;;;;;;10.00;10.00;;;;;;;;6241921;22;45446;-94
2022/09/12 06:01:11;;;;;;;;;12.33;12.33;;;;;;;;6242319;22;45382;-93
2022/09/12 06:03:40;;;;;;;;;14.33;13.67;;;;;;;;6241753;22;48639;-94
2022/09/12 06:06:06;;;;;;;;;15.00;12.67;;;;;;;;6242005;22;45364;-94
2022/09/12 06:08:32;;;;;;;;;11.00;10.67;;;;;;;;6242210;22;45461;-94
2022/09/12 06:10:58;;;;;;;;;14.00;13.33;;;;;;;;6242291;22;45625;-93
2022/09/12 06:13:24;;;;;;;;;13.00;11.00;;;;;;;;6242247;22;47895;-94
2022/09/12 06:15:49;;;;;;;;;13.00;12.00;;;;;;;;6241915;22;45346;-95
2022/09/12 06:18:14;;;;;;;;;13.00;12.67;;;;;;;;6242243;22;45298;-93
2022/09/12 06:20:39;;;;;;;;;16.00;13.33;;;;;;;;6241638;22;45643;-94
2022/09/12 06:23:05;;;;;;;;;18.33;12.67;;;;;;;;6241449;22;46953;-94
2022/09/12 06:25:30;;;;;;;;;17.33;13.67;;;;;;;;6241772;22;45249;-91
2022/09/12 06:27:56;;;;;;;;;14.00;12.00;;;;;;;;6242643;22;45334;-95
2022/09/12 06:30:21;;;;;;;;;12.00;11.00;;;;;;;;6214511;22;46085;-94
2022/09/12 06:32:46;;;;;;;;;13.00;11.67;;;;;;;;6211737;22;47785;-89
2022/09/12 06:35:12;;;;;;;;;14.33;13.33;;;;;;;;6205890;22;45192;-91
2022/09/12 06:37:37;;;;;;;;;16.00;14.00;;;;;;;;6206000;22;45245;-94
2022/09/12 06:40:03;;;;;;;;;17.33;15.00;;;;;;;;6206152;22;45304;-95
2022/09/12 06:42:28;;;;;;;;;14.33;12.33;;;;;;;;6205520;22;47765;-89
2022/09/12 06:44:53;;;;;;;;;17.33;14.00;;;;;;;;6204463;22;45615;-89
2022/09/12 06:47:19;;;;;;;;;16.00;11.00;;;;;;;;6179896;23;45228;-83
2022/09/12 06:49:44;;;;;;;;;12.00;12.00;;;;;;;;6203803;22;45463;-84
2022/09/12 06:52:09;;;;;;;;;14.33;12.00;;;;;;;;6180008;23;45472;-84
2022/09/12 06:54:35;;;;;;;;;13.00;12.00;;;;;;;;6180023;23;45374;-83
2022/09/12 06:57:00;;;;;;;;;13.00;12.33;;;;;;;;6179927;23;45275;-83
2022/09/12 06:59:25;;;;;;;;;13.00;12.00;;;;;;;;6203180;22;45530;-82
2022/09/12 07:01:51;;;;;;;;;12.33;10.67;;;;;;;;6204792;22;47226;-82
2022/09/12 07:04:16;;;;;;;;;13.67;12.00;;;;;;;;6204794;22;45393;-83
2022/09/12 07:06:43;;;;;;;;;14.67;12.33;;;;;;;;6181654;23;45250;-83
2022/09/12 07:09:10;;;;;;;;;13.67;13.00;;;;;;;;6175915;23;45334;-84
2022/09/12 07:11:36;;;;;;;;;14.00;13.00;;;;;;;;6178325;22;46763;-84
2022/09/12 07:14:03;;;;;;;;;14.33;13.33;;;;;;;;6178697;22;45322;-84
2022/09/12 07:16:29;;;;;;;;;16.00;15.00;;;;;;;;6179159;22;45641;-84
2022/09/12 07:18:58;;;;;;;;;11.67;10.00;;;;;;;;6176031;22;45541;-84
2022/09/12 07:21:24;;;;;;;;;13.00;12.00;;;;;;;;6177928;22;46303;-84
2022/09/12 07:23:50;;;;;;;;;16.67;13.67;;;;;;;;6179337;23;45383;-84
2022/09/12 07:26:16;;;;;;;;;15.67;14.00;;;;;;;;6179419;22;45334;-84
2022/09/12 07:28:41;;;;;;;;;17.67;12.67;;;;;;;;6204670;22;45675;-83
2022/09/12 07:31:08;;;;;;;;;15.33;14.33;;;;;;;;6207441;22;47288;-83
2022/09/12 07:33:33;;;;;;;;;17.33;16.00;;;;;;;;6202435;22;45858;-83
2022/09/12 07:36:02;;;;;;;;;13.00;12.00;;;;;;;;6208433;22;45635;-83
2022/09/12 07:38:28;;;;;;;;;15.67;14.00;;;;;;;;6209291;22;45340;-83
2022/09/12 07:40:53;;;;;;;;;14.33;14.00;;;;;;;;6205795;22;46638;-83
2022/09/12 07:43:18;;;;;;;;;17.00;14.00;;;;;;;;6205356;22;45761;-83
2022/09/12 07:45:43;;;;;;;;;16.33;15.00;;;;;;;;6208609;22;45321;-83
2022/09/12 07:48:09;;;;;;;;;16.00;14.67;;;;;;;;6206394;22;45739;-83
2022/09/12 07:50:35;;;;;;;;;16.00;15.67;;;;;;;;6208541;22;46635;-83
2022/09/12 07:53:01;;;;;;;;;15.00;12.67;;;;;;;;6210620;22;45348;-87
2022/09/12 07:55:27;;;;;;;;;17.00;12.67;;;;;;;;6208984;22;45450;-88
2022/09/12 07:57:52;;;;;;;;;15.67;12.33;;;;;;;;6211042;22;45448;-88
2022/09/12 08:00:17;;;;;;;;;19.33;15.67;;;;;;;;6209016;22;45717;-89
2022/09/12 08:02:42;;;;;;;;;16.33;14.33;;;;;;;;6211097;22;45267;-92
2022/09/12 08:05:08;;;;;;;;;16.33;16.00;;;;;;;;6205413;22;45259;-88
2022/09/12 08:07:33;;;;;;;;;16.00;14.33;;;;;;;;6207969;22;45370;-89
2022/09/12 08:09:59;;;;;;;;;16.67;16.67;;;;;;;;6206913;22;48145;-89
2022/09/12 08:12:24;;;;;;;;;16.33;12.00;;;;;;;;6206343;22;45337;-89
2022/09/12 08:14:49;;;;;;;;;15.00;14.00;;;;;;;;6208168;22;45460;-89
2022/09/12 08:17:15;;;;;;;;;18.33;16.00;;;;;;;;6208458;22;45634;-89
2022/09/12 08:19:40;;;;;;;;;16.67;13.00;;;;;;;;6207408;22;45576;-89
2022/09/12 08:22:05;;;;;;;;;17.00;15.33;;;;;;;;6207526;22;45576;-90
2022/09/12 08:24:31;;;;;;;;;16.33;16.00;;;;;;;;6212481;22;45275;-89
2022/09/12 08:26:56;;;;;;;;;13.33;13.33;;;;;;;;6215684;22;45358;-90
2022/09/12 08:29:21;;;;;;;;;16.33;13.33;;;;;;;;6215545;22;45196;-90
2022/09/12 08:31:46;;;;;;;;;13.33;13.33;;;;;;;;6213957;22;45332;-90
2022/09/12 08:34:11;;;;;;;;;15.75;14.75;;;;;;;;6213398;22;45726;-89
2022/09/12 08:36:37;;;;;;;;;15.33;15.00;;;;;;;;6211308;22;45355;-88
2022/09/12 08:39:04;;;;;;;;;17.33;14.67;;;;;;;;6217246;22;48112;-90
2022/09/12 08:41:29;;;;;;;;;19.00;17.00;;;;;;;;6215160;22;45382;-90
2022/09/12 08:43:57;;;;;;;;;18.00;16.00;;;;;;;;6216921;22;45283;-90
2022/09/12 08:46:32;;;;;;;;;18.33;16.00;;;;;;;;6215326;22;45312;-90
2022/09/12 08:48:58;;;;;;;;;21.00;15.67;;;;;;;;6207731;22;47278;-89
2022/09/12 08:51:23;;;;;;;;;15.33;14.00;;;;;;;;6209370;22;45502;-89
2022/09/12 08:53:53;;;;;;;;;12.00;8.00;;;;;;;;6208566;22;45360;-88
2022/09/12 08:56:18;;;;;;;;;14.33;13.33;;;;;;;;6208410;22;45441;-89
2022/09/12 08:58:44;;;;;;;;;17.00;15.00;;;;;;;;6206447;22;45614;-90
2022/09/12 09:01:16;;;;;;;;;19.33;14.67;;;;;;;;6207769;22;45857;-89
2022/09/12 09:04:00;;;;;;;;;15.33;14.00;;;;;;;;6206445;22;45697;-90
2022/09/12 09:06:25;;;;;;;;;13.00;11.00;;;;;;;;6208492;22;45443;-90
2022/09/12 09:08:57;;;;;;;;;15.00;11.67;;;;;;;;6210111;22;46280;-90
2022/09/12 09:11:34;;;;;;;;;13.67;13.33;;;;;;;;6209656;22;45721;-90
2022/09/12 09:15:00;;;;;;;;;15.67;13.00;;;;;;;;6206800;22;45342;-90
2022/09/12 09:16:55;;;;;;;;;14.33;13.00;;;;;;;;6187677;22;45733;-90
2022/09/12 09:19:25;;;;;;;;;16.33;13.00;;;;;;;;6207575;22;46968;-91
2022/09/12 09:21:58;;;;;;;;;12.00;11.67;;;;;;;;6207046;22;45964;-89
2022/09/12 09:24:25;;;;;;;;;14.00;10.33;;;;;;;;6210100;22;45430;-89
2022/09/12 09:26:56;;;;;;;;;12.67;12.00;;;;;;;;6206277;22;45334;-89
2022/09/12 09:29:26;;;;;;;;;12.00;12.00;;;;;;;;6208794;22;45405;-89
2022/09/12 09:31:53;;;;;;;;;12.00;9.33;;;;;;;;6208471;22;45244;-89
2022/09/12 09:34:22;;;;;;;;;10.33;8.67;;;;;;;;6206819;22;45411;-91
2022/09/12 09:36:49;;;;;;;;;13.00;11.33;;;;;;;;6206516;22;45529;-89
2022/09/12 09:39:32;;;;;;;;;10.00;10.00;;;;;;;;6210490;22;45292;-88
2022/09/12 09:42:04;;;;;;;;;11.00;9.67;;;;;;;;6207161;22;45342;-88
2022/09/12 09:44:30;;;;;;;;;9.67;9.67;;;;;;;;6207391;22;45783;-88
2022/09/12 09:46:57;;;;;;;;;12.33;11.00;;;;;;;;6206808;22;45537;-89
2022/09/12 09:49:24;;;;;;;;;10.33;9.67;;;;;;;;6207807;22;48360;-90
2022/09/12 09:51:49;;;;;;;;;11.00;11.00;;;;;;;;6207489;22;45725;-90
2022/09/12 09:54:20;;;;;;;;;11.00;10.67;;;;;;;;6210479;22;45267;-89
2022/09/12 09:56:46;;;;;;;;;7.67;7.67;;;;;;;;6207654;22;45472;-86
2022/09/12 09:59:13;;;;;;;;;8.67;7.67;;;;;;;;6209186;22;46338;-85
2022/09/12 10:01:43;;;;;;;;;11.00;11.00;;;;;;;;6206185;22;45333;-85
2022/09/12 10:04:16;;;;;;;;;6.67;6.67;;;;;;;;6181484;22;45246;-86
2022/09/12 10:06:41;;;;;;;;;8.00;8.00;;;;;;;;6206096;22;45516;-85
2022/09/12 10:09:23;;;;;;;;;9.33;6.00;;;;;;;;6207645;22;45850;-86
2022/09/12 10:11:49;;;;;;;;;7.33;6.33;;;;;;;;6208447;22;45558;-85
2022/09/12 10:14:26;;;;;;;;;10.67;5.33;;;;;;;;6207275;22;45385;-85
2022/09/12 10:16:52;;;;;;;;;7.67;3.67;;;;;;;;6209675;22;45367;-84
2022/09/12 10:19:20;;;;;;;;;6.33;6.33;;;;;;;;6209879;22;45521;-85
2022/09/12 10:21:50;;;;;;;;;7.00;7.00;;;;;;;;6209492;22;45330;-85
2022/09/12 10:24:21;;;;;;;;;6.00;6.00;;;;;;;;6211418;22;45406;-85
2022/09/12 10:27:05;;;;;;;;;8.67;7.00;;;;;;;;6206153;22;45241;-86
2022/09/12 10:29:32;;;;;;;;;5.33;5.00;;;;;;;;6207800;22;46592;-85
2022/09/12 10:32:07;;;;;;;;;5.33;5.00;;;;;;;;6206923;22;45750;-85
2022/09/12 10:34:43;;;;;;;;;5.33;4.00;;;;;;;;6209176;22;45325;-85
2022/09/12 10:37:09;;;;;;;;;7.33;5.67;;;;;;;;6206304;22;45395;-86
2022/09/12 10:39:37;;;;;;;;;4.33;4.33;;;;;;;;6207122;22;47413;-87
2022/09/12 10:42:03;;;;;;;;;6.33;4.33;;;;;;;;6207382;22;45358;-86
2022/09/12 10:44:29;;;;;;;;;6.00;6.00;;;;;;;;6208555;22;45292;-87
2022/09/12 10:46:55;;;;;;;;;5.33;4.00;;;;;;;;6206519;22;45268;-87
2022/09/12 10:49:23;;;;;;;;;2.00;2.00;;;;;;;;6207632;22;46207;-85
2022/09/12 10:51:48;;;;;;;;;3.67;3.67;;;;;;;;6206322;22;45416;-85
2022/09/12 10:54:15;;;;;;;;;2.00;2.00;;;;;;;;6209314;22;45425;-86
2022/09/12 10:56:56;;;;;;;;;2.00;2.00;;;;;;;;6206389;22;45325;-85
2022/09/12 10:59:31;;;;;;;;;2.00;2.00;;;;;;;;6207292;22;45349;-85
2022/09/12 11:02:10;;;;;;;;;4.00;2.67;;;;;;;;6205518;22;45501;-86
2022/09/12 11:04:35;;;;;;;;;1.00;1.00;;;;;;;;6207140;22;45324;-87
2022/09/12 11:07:03;;;;;;;;;4.00;3.00;;;;;;;;6208703;22;45406;-88
2022/09/12 11:09:36;;;;;;;;;2.00;2.00;;;;;;;;6206962;22;47434;-88
2022/09/12 11:12:20;;;;;;;;;4.00;4.00;;;;;;;;6202992;22;46307;-88
2022/09/12 11:15:08;;;;;;;;;2.00;2.00;;;;;;;;6208017;22;45316;-88
2022/09/12 11:17:43;;;;;;;;;3.00;2.00;;;;;;;;6087086;23;45427;-88
2022/09/12 11:20:20;;;;;;;;;1.00;1.00;;;;;;;;6061549;23;47327;-88
2022/09/12 11:22:51;;;;;;;;;2.33;2.33;;;;;;;;6086555;23;45696;-87
2022/09/12 11:25:22;;;;;;;;;2.33;2.33;;;;;;;;6087309;23;45390;-88
2022/09/12 11:28:00;;;;;;;;;2.00;2.00;;;;;;;;6086646;23;45477;-88
2022/09/12 11:30:26;;;;;;;;;3.00;2.33;;;;;;;;6086741;23;45537;-87
2022/09/12 11:33:10;;;;;;;;;2.00;2.00;;;;;;;;6087199;23;45358;-88
2022/09/12 11:35:43;;;;;;;;;1.33;1.33;;;;;;;;6085927;23;45382;-86
2022/09/12 11:38:27;;;;;;;;;2.00;2.00;;;;;;;;6086293;23;45450;-88
2022/09/12 11:40:54;;;;;;;;;1.67;1.67;;;;;;;;6085941;23;46896;-87
2022/09/12 11:43:48;;;;;;;;;2.00;1.33;;;;;;;;6085521;23;45512;-87
2022/09/12 11:46:32;;;;;;;;;1.00;1.00;;;;;;;;6072556;23;45646;-88
2022/09/12 11:49:12;;;;;;;;;1.00;1.00;;;;;;;;6086688;23;45835;-88
2022/09/12 11:51:55;;;;;;;;;2.00;2.00;;;;;;;;6086452;23;48058;-88
2022/09/12 11:54:40;;;;;;;;;2.00;2.00;;;;;;;;6136950;22;45384;-87
2022/09/12 11:57:23;;;;;;;;;1.00;1.00;;;;;;;;6216221;22;45346;-86
2022/09/12 11:59:51;;;;;;;;;2.00;2.00;;;;;;;;6217225;22;45330;-88
2022/09/12 12:02:21;;;;;;;;;2.00;2.00;;;;;;;;6209512;22;47421;-86
2022/09/12 12:04:54;;;;;;;;;0.00;0.00;;;;;;;;6209890;22;45849;-87
2022/09/12 12:07:19;;;;;;;;;1.00;1.00;;;;;;;;6207649;22;45297;-87
2022/09/12 12:09:49;;;;;;;;;2.33;2.33;;;;;;;;6181895;22;45336;-87
2022/09/12 12:12:18;;;;;;;;;2.33;2.00;;;;;;;;6206954;22;47945;-87
2022/09/12 12:14:44;;;;;;;;;2.00;1.00;;;;;;;;6207121;22;45383;-86
2022/09/12 12:17:18;;;;;;;;;2.00;2.00;;;;;;;;6209714;22;45421;-87
2022/09/12 12:19:44;;;;;;;;;2.00;2.00;;;;;;;;6210518;22;45414;-87
2022/09/12 12:22:22;;;;;;;;;2.00;1.00;;;;;;;;6209178;22;45653;-87
2022/09/12 12:25:06;;;;;;;;;2.00;2.00;;;;;;;;6210205;22;45366;-87
2022/09/12 12:27:52;;;;;;;;;1.33;1.33;;;;;;;;6207512;22;45327;-86
2022/09/12 12:30:29;;;;;;;;;3.00;1.67;;;;;;;;6206862;22;45752;-87
2022/09/12 12:33:11;;;;;;;;;1.67;1.67;;;;;;;;6207154;22;48636;-87
2022/09/12 12:35:37;;;;;;;;;2.00;2.00;;;;;;;;6207495;22;45691;-87
2022/09/12 12:38:03;;;;;;;;;2.00;2.00;;;;;;;;6208327;22;45295;-88
2022/09/12 12:40:29;;;;;;;;;0.00;0.00;;;;;;;;6209710;22;45373;-86
2022/09/12 12:42:54;;;;;;;;;1.00;1.00;;;;;;;;6209536;22;45703;-87
2022/09/12 12:45:25;;;;;;;;;1.67;1.67;;;;;;;;6206322;22;45785;-88
2022/09/12 12:48:07;;;;;;;;;2.67;2.00;;;;;;;;6210075;22;45418;-88
2022/09/12 12:50:33;;;;;;;;;1.00;1.00;;;;;;;;6209985;22;45434;-88
2022/09/12 12:53:19;;;;;;;;;1.00;1.00;;;;;;;;6208066;22;47014;-88
2022/09/12 12:55:46;;;;;;;;;3.67;1.67;;;;;;;;6207120;22;45493;-87
2022/09/12 12:58:24;;;;;;;;;1.33;1.33;;;;;;;;6207751;22;45398;-87
2022/09/12 13:01:01;;;;;;;;;1.00;1.00;;;;;;;;6207577;22;45367;-87
2022/09/12 13:03:31;;;;;;;;;2.33;1.00;;;;;;;;6207749;22;45695;-91
2022/09/12 13:06:00;;;;;;;;;2.00;1.00;;;;;;;;6207082;22;45373;-87
2022/09/12 13:08:28;;;;;;;;;2.67;2.67;;;;;;;;6208126;22;45351;-86
2022/09/12 13:10:56;;;;;;;;;1.67;1.67;;;;;;;;6207369;22;45587;-87
2022/09/12 13:13:41;;;;;;;;;0.33;0.33;;;;;;;;6207153;22;47066;-87
2022/09/12 13:16:08;;;;;;;;;1.00;1.00;;;;;;;;6209438;22;45371;-87
2022/09/12 13:18:47;;;;;;;;;0.00;0.00;;;;;;;;6207687;22;45398;-86
2022/09/12 13:21:14;;;;;;;;;1.00;1.00;;;;;;;;6207081;22;45411;-88
2022/09/12 13:23:40;;;;;;;;;1.00;1.00;;;;;;;;6203266;22;46342;-87
2022/09/12 13:26:12;;;;;;;;;2.33;1.67;;;;;;;;6206130;22;45755;-87
2022/09/12 13:28:38;;;;;;;;;1.33;1.00;;;;;;;;6206292;22;45552;-87
2022/09/12 13:31:23;;;;;;;;;1.00;1.00;;;;;;;;6205987;22;45375;-86
2022/09/12 13:33:53;;;;;;;;;1.00;1.00;;;;;;;;6206761;22;48137;-86
2022/09/12 13:36:24;;;;;;;;;0.00;0.00;;;;;;;;6210039;22;45315;-85
2022/09/12 13:39:08;;;;;;;;;0.33;0.00;;;;;;;;6215001;22;45431;-85
2022/09/12 13:41:55;;;;;;;;;1.00;0.00;;;;;;;;6212280;22;45477;-84
2022/09/12 13:44:20;;;;;;;;;0.67;0.67;;;;;;;;6211229;22;47010;-85
2022/09/12 13:46:46;;;;;;;;;2.67;1.00;;;;;;;;6211722;22;45433;-86
2022/09/12 13:49:47;;;;;;;;;1.00;1.00;;;;;;;;6211461;22;45326;-85
2022/09/12 13:52:20;;;;;;;;;1.00;1.00;;;;;;;;6064003;23;45677;-86
2022/09/12 13:54:47;;;;;;;;;1.00;1.00;;;;;;;;6086409;23;46752;-86
2022/09/12 13:57:26;;;;;;;;;0.00;0.00;;;;;;;;6085489;23;45285;-86
2022/09/12 13:59:53;;;;;;;;;2.33;1.00;;;;;;;;6086851;23;45416;-86
2022/09/12 14:02:20;;;;;;;;;1.00;1.00;;;;;;;;6062094;23;45630;-86
2022/09/12 14:05:09;;;;;;;;;0.67;0.67;;;;;;;;6086575;23;46368;-86
2022/09/12 14:07:57;;;;;;;;;0.00;0.00;;;;;;;;6086459;23;45615;-86
2022/09/12 14:10:32;;;;;;;;;1.67;1.67;;;;;;;;6074880;23;45518;-85
2022/09/12 14:13:04;;;;;;;;;2.00;2.00;;;;;;;;6086417;23;45422;-87
2022/09/12 14:15:30;;;;;;;;;2.33;1.00;;;;;;;;6085426;23;47033;-86
2022/09/12 14:18:00;;;;;;;;;1.67;1.00;;;;;;;;6061436;23;46045;-86
2022/09/12 14:20:30;;;;;;;;;2.00;2.00;;;;;;;;6086837;23;45473;-86
2022/09/12 14:22:58;;;;;;;;;2.00;1.00;;;;;;;;6087247;23;45356;-86
2022/09/12 14:25:24;;;;;;;;;1.33;1.33;;;;;;;;6105584;22;45601;-87
2022/09/12 14:27:51;;;;;;;;;1.00;1.00;;;;;;;;6207158;22;45545;-87
2022/09/12 14:30:30;;;;;;;;;1.33;1.33;;;;;;;;6201381;22;45731;-86
2022/09/12 14:33:05;;;;;;;;;1.00;1.00;;;;;;;;6201491;22;45500;-86
2022/09/12 14:35:32;;;;;;;;;1.67;1.00;;;;;;;;6178512;23;45528;-86
2022/09/12 14:38:04;;;;;;;;;3.00;3.00;;;;;;;;6178731;22;45278;-85
2022/09/12 14:40:30;;;;;;;;;1.00;1.00;;;;;;;;6179306;22;45322;-86
2022/09/12 14:42:55;;;;;;;;;1.00;1.00;;;;;;;;6178734;23;45554;-86
2022/09/12 14:45:23;;;;;;;;;1.00;1.00;;;;;;;;6174074;23;45373;-86